sensor_id;sensor_type;location;lat;lon;timestamp;P1;durP1;ratioP1;P2;durP2;ratioP2
12052;SDS011;6087;48.982;12.064;2023-01-29T00:00:22;4.73;;;4.23;;
12052;SDS011;6087;48.982;12.064;2023-01-29T00:02:49;4.60;;;4.20;;
12052;SDS011;6087;48.982;12.064;2023-01-29T00:05:16;4.57;;;4.17;;
12052;SDS011;6087;48.982;12.064;2023-01-29T00:07:44;4.87;;;4.10;;
12052;SDS011;6087;48.982;12.064;2023-01-29T00:10:12;4.80;;;4.40;;
12052;SDS011;6087;48.982;12.064;2023-01-29T00:12:39;6.03;;;4.07;;
12052;SDS011;6087;48.982;12.064;2023-01-29T00:15:06;5.53;;;4.33;;
12052;SDS011;6087;48.982;12.064;2023-01-29T00:17:33;5.13;;;4.37;;
12052;SDS011;6087;48.982;12.064;2023-01-29T00:20:00;5.47;;;4.10;;
12052;SDS011;6087;48.982;12.064;2023-01-29T00:22:28;6.23;;;4.67;;
12052;SDS011;6087;48.982;12.064;2023-01-29T00:24:57;4.93;;;3.93;;
12052;SDS011;6087;48.982;12.064;2023-01-29T00:27:24;6.00;;;4.40;;
12052;SDS011;6087;48.982;12.064;2023-01-29T00:29:51;7.03;;;4.77;;
12052;SDS011;6087;48.982;12.064;2023-01-29T00:32:32;5.77;;;4.40;;
12052;SDS011;6087;48.982;12.064;2023-01-29T00:34:59;4.80;;;4.20;;
12052;SDS011;6087;48.982;12.064;2023-01-29T00:37:26;6.30;;;4.60;;
12052;SDS011;6087;48.982;12.064;2023-01-29T00:39:53;5.57;;;4.57;;
12052;SDS011;6087;48.982;12.064;2023-01-29T00:42:21;5.63;;;4.20;;
12052;SDS011;6087;48.982;12.064;2023-01-29T00:45:06;6.03;;;4.47;;
12052;SDS011;6087;48.982;12.064;2023-01-29T00:47:33;5.33;;;4.67;;
12052;SDS011;6087;48.982;12.064;2023-01-29T00:50:00;5.17;;;4.40;;
12052;SDS011;6087;48.982;12.064;2023-01-29T00:52:29;6.80;;;4.77;;
12052;SDS011;6087;48.982;12.064;2023-01-29T00:54:57;5.60;;;4.67;;
12052;SDS011;6087;48.982;12.064;2023-01-29T00:57:27;7.83;;;5.03;;
12052;SDS011;6087;48.982;12.064;2023-01-29T00:59:55;6.80;;;5.13;;
12052;SDS011;6087;48.982;12.064;2023-01-29T01:02:23;7.43;;;4.70;;
12052;SDS011;6087;48.982;12.064;2023-01-29T01:05:08;10.57;;;4.97;;
12052;SDS011;6087;48.982;12.064;2023-01-29T01:07:38;5.37;;;4.23;;
12052;SDS011;6087;48.982;12.064;2023-01-29T01:10:05;5.60;;;4.47;;
12052;SDS011;6087;48.982;12.064;2023-01-29T01:12:48;6.10;;;4.47;;
12052;SDS011;6087;48.982;12.064;2023-01-29T01:15:18;4.70;;;3.93;;
12052;SDS011;6087;48.982;12.064;2023-01-29T01:17:46;5.33;;;4.60;;
12052;SDS011;6087;48.982;12.064;2023-01-29T01:20:16;6.07;;;4.93;;
12052;SDS011;6087;48.982;12.064;2023-01-29T01:22:44;5.83;;;5.27;;
12052;SDS011;6087;48.982;12.064;2023-01-29T01:25:11;4.97;;;4.40;;
12052;SDS011;6087;48.982;12.064;2023-01-29T01:27:37;5.93;;;4.50;;
12052;SDS011;6087;48.982;12.064;2023-01-29T01:30:09;5.80;;;4.50;;
12052;SDS011;6087;48.982;12.064;2023-01-29T01:32:38;5.90;;;4.03;;
12052;SDS011;6087;48.982;12.064;2023-01-29T01:35:05;4.83;;;3.70;;
12052;SDS011;6087;48.982;12.064;2023-01-29T01:37:33;4.77;;;4.17;;
12052;SDS011;6087;48.982;12.064;2023-01-29T01:40:03;6.03;;;4.00;;
12052;SDS011;6087;48.982;12.064;2023-01-29T01:42:36;5.30;;;3.80;;
12052;SDS011;6087;48.982;12.064;2023-01-29T01:45:04;4.30;;;3.90;;
12052;SDS011;6087;48.982;12.064;2023-01-29T01:47:36;5.47;;;4.33;;
12052;SDS011;6087;48.982;12.064;2023-01-29T01:50:08;5.07;;;4.43;;
12052;SDS011;6087;48.982;12.064;2023-01-29T01:52:39;5.40;;;4.83;;
12052;SDS011;6087;48.982;12.064;2023-01-29T01:55:11;4.87;;;4.37;;
12052;SDS011;6087;48.982;12.064;2023-01-29T01:57:40;4.73;;;4.30;;
12052;SDS011;6087;48.982;12.064;2023-01-29T02:00:10;4.67;;;4.20;;
12052;SDS011;6087;48.982;12.064;2023-01-29T02:02:42;6.50;;;4.17;;
12052;SDS011;6087;48.982;12.064;2023-01-29T02:05:29;7.50;;;4.67;;
12052;SDS011;6087;48.982;12.064;2023-01-29T02:08:14;6.17;;;4.43;;
12052;SDS011;6087;48.982;12.064;2023-01-29T02:11:02;7.10;;;4.97;;
12052;SDS011;6087;48.982;12.064;2023-01-29T02:13:31;4.93;;;4.23;;
12052;SDS011;6087;48.982;12.064;2023-01-29T02:15:58;4.53;;;4.13;;
12052;SDS011;6087;48.982;12.064;2023-01-29T02:18:26;5.57;;;4.40;;
12052;SDS011;6087;48.982;12.064;2023-01-29T02:21:02;5.43;;;4.50;;
12052;SDS011;6087;48.982;12.064;2023-01-29T02:26:55;5.17;;;4.60;;
12052;SDS011;6087;48.982;12.064;2023-01-29T02:29:33;6.60;;;4.20;;
12052;SDS011;6087;48.982;12.064;2023-01-29T02:32:15;6.30;;;4.37;;
12052;SDS011;6087;48.982;12.064;2023-01-29T02:34:51;6.20;;;5.23;;
12052;SDS011;6087;48.982;12.064;2023-01-29T02:37:45;8.87;;;4.97;;
12052;SDS011;6087;48.982;12.064;2023-01-29T02:40:22;4.67;;;4.10;;
12052;SDS011;6087;48.982;12.064;2023-01-29T02:42:56;7.63;;;5.20;;
12052;SDS011;6087;48.982;12.064;2023-01-29T02:45:33;5.47;;;4.10;;
12052;SDS011;6087;48.982;12.064;2023-01-29T02:48:08;4.90;;;4.40;;
12052;SDS011;6087;48.982;12.064;2023-01-29T02:50:42;6.57;;;4.03;;
12052;SDS011;6087;48.982;12.064;2023-01-29T02:53:15;5.97;;;3.77;;
12052;SDS011;6087;48.982;12.064;2023-01-29T02:55:45;4.70;;;4.00;;
12052;SDS011;6087;48.982;12.064;2023-01-29T02:58:19;5.87;;;4.57;;
12052;SDS011;6087;48.982;12.064;2023-01-29T03:00:55;5.60;;;4.23;;
12052;SDS011;6087;48.982;12.064;2023-01-29T03:03:27;6.50;;;4.57;;
12052;SDS011;6087;48.982;12.064;2023-01-29T03:05:58;5.40;;;4.70;;
12052;SDS011;6087;48.982;12.064;2023-01-29T03:08:31;5.63;;;4.30;;
12052;SDS011;6087;48.982;12.064;2023-01-29T03:11:06;4.77;;;4.33;;
12052;SDS011;6087;48.982;12.064;2023-01-29T03:13:39;4.87;;;4.33;;
12052;SDS011;6087;48.982;12.064;2023-01-29T03:16:11;5.50;;;4.33;;
12052;SDS011;6087;48.982;12.064;2023-01-29T03:18:45;4.20;;;3.80;;
12052;SDS011;6087;48.982;12.064;2023-01-29T03:21:17;5.67;;;4.57;;
12052;SDS011;6087;48.982;12.064;2023-01-29T03:24:05;6.10;;;4.40;;
12052;SDS011;6087;48.982;12.064;2023-01-29T03:26:53;5.10;;;4.60;;
12052;SDS011;6087;48.982;12.064;2023-01-29T03:29:41;7.17;;;4.40;;
12052;SDS011;6087;48.982;12.064;2023-01-29T03:32:29;5.40;;;4.57;;
12052;SDS011;6087;48.982;12.064;2023-01-29T03:34:57;5.17;;;4.23;;
12052;SDS011;6087;48.982;12.064;2023-01-29T03:37:30;4.83;;;4.00;;
12052;SDS011;6087;48.982;12.064;2023-01-29T03:40:00;4.60;;;3.97;;
12052;SDS011;6087;48.982;12.064;2023-01-29T03:42:28;5.47;;;4.43;;
12052;SDS011;6087;48.982;12.064;2023-01-29T03:45:11;5.03;;;4.53;;
12052;SDS011;6087;48.982;12.064;2023-01-29T03:47:45;5.63;;;4.20;;
12052;SDS011;6087;48.982;12.064;2023-01-29T03:50:19;5.70;;;4.57;;
12052;SDS011;6087;48.982;12.064;2023-01-29T03:52:58;6.03;;;4.53;;
12052;SDS011;6087;48.982;12.064;2023-01-29T03:55:32;4.90;;;3.90;;
12052;SDS011;6087;48.982;12.064;2023-01-29T03:58:04;5.57;;;4.47;;
12052;SDS011;6087;48.982;12.064;2023-01-29T04:00:37;4.20;;;3.80;;
12052;SDS011;6087;48.982;12.064;2023-01-29T04:03:11;5.33;;;4.10;;
12052;SDS011;6087;48.982;12.064;2023-01-29T04:05:46;4.80;;;3.77;;
12052;SDS011;6087;48.982;12.064;2023-01-29T04:08:18;4.93;;;4.13;;
12052;SDS011;6087;48.982;12.064;2023-01-29T04:10:49;5.13;;;4.13;;
12052;SDS011;6087;48.982;12.064;2023-01-29T04:13:19;4.13;;;3.50;;
12052;SDS011;6087;48.982;12.064;2023-01-29T04:15:49;4.47;;;3.40;;
12052;SDS011;6087;48.982;12.064;2023-01-29T04:18:22;4.17;;;3.47;;
12052;SDS011;6087;48.982;12.064;2023-01-29T04:20:49;6.33;;;3.97;;
12052;SDS011;6087;48.982;12.064;2023-01-29T04:23:18;3.97;;;3.60;;
12052;SDS011;6087;48.982;12.064;2023-01-29T04:25:50;5.00;;;3.97;;
12052;SDS011;6087;48.982;12.064;2023-01-29T04:28:25;3.83;;;3.47;;
12052;SDS011;6087;48.982;12.064;2023-01-29T04:30:59;2.47;;;2.27;;
12052;SDS011;6087;48.982;12.064;2023-01-29T04:33:32;3.70;;;2.37;;
12052;SDS011;6087;48.982;12.064;2023-01-29T04:38:55;3.87;;;3.07;;
12052;SDS011;6087;48.982;12.064;2023-01-29T04:41:30;3.87;;;2.97;;
12052;SDS011;6087;48.982;12.064;2023-01-29T04:44:02;3.53;;;2.90;;
12052;SDS011;6087;48.982;12.064;2023-01-29T04:46:35;2.83;;;2.40;;
12052;SDS011;6087;48.982;12.064;2023-01-29T04:49:13;5.07;;;3.57;;
12052;SDS011;6087;48.982;12.064;2023-01-29T04:51:48;3.20;;;2.70;;
12052;SDS011;6087;48.982;12.064;2023-01-29T04:54:21;2.50;;;2.30;;
12052;SDS011;6087;48.982;12.064;2023-01-29T04:57:01;3.30;;;2.20;;
12052;SDS011;6087;48.982;12.064;2023-01-29T04:59:35;2.10;;;2.00;;
12052;SDS011;6087;48.982;12.064;2023-01-29T05:02:07;2.23;;;2.00;;
12052;SDS011;6087;48.982;12.064;2023-01-29T05:04:38;1.87;;;1.57;;
12052;SDS011;6087;48.982;12.064;2023-01-29T05:07:09;1.87;;;1.60;;
12052;SDS011;6087;48.982;12.064;2023-01-29T05:09:39;1.73;;;1.63;;
12052;SDS011;6087;48.982;12.064;2023-01-29T05:12:09;2.20;;;2.00;;
12052;SDS011;6087;48.982;12.064;2023-01-29T05:14:40;3.17;;;1.93;;
12052;SDS011;6087;48.982;12.064;2023-01-29T05:17:11;2.23;;;2.03;;
12052;SDS011;6087;48.982;12.064;2023-01-29T05:19:42;3.33;;;1.50;;
12052;SDS011;6087;48.982;12.064;2023-01-29T05:22:11;2.33;;;1.80;;
12052;SDS011;6087;48.982;12.064;2023-01-29T05:24:41;1.47;;;1.37;;
12052;SDS011;6087;48.982;12.064;2023-01-29T05:27:08;1.73;;;1.63;;
12052;SDS011;6087;48.982;12.064;2023-01-29T05:29:58;1.83;;;1.73;;
12052;SDS011;6087;48.982;12.064;2023-01-29T05:32:25;2.23;;;2.03;;
12052;SDS011;6087;48.982;12.064;2023-01-29T05:34:53;1.87;;;1.77;;
12052;SDS011;6087;48.982;12.064;2023-01-29T05:37:20;2.00;;;1.80;;
12052;SDS011;6087;48.982;12.064;2023-01-29T05:39:47;2.30;;;2.10;;
12052;SDS011;6087;48.982;12.064;2023-01-29T05:42:14;3.90;;;2.00;;
12052;SDS011;6087;48.982;12.064;2023-01-29T05:44:41;2.33;;;2.13;;
12052;SDS011;6087;48.982;12.064;2023-01-29T05:47:08;2.30;;;2.10;;
12052;SDS011;6087;48.982;12.064;2023-01-29T05:49:35;2.40;;;1.70;;
12052;SDS011;6087;48.982;12.064;2023-01-29T05:52:04;2.90;;;2.00;;
12052;SDS011;6087;48.982;12.064;2023-01-29T05:54:31;2.20;;;1.83;;
12052;SDS011;6087;48.982;12.064;2023-01-29T05:56:58;2.83;;;1.70;;
12052;SDS011;6087;48.982;12.064;2023-01-29T05:59:25;2.23;;;1.70;;
12052;SDS011;6087;48.982;12.064;2023-01-29T06:01:51;1.83;;;1.60;;
12052;SDS011;6087;48.982;12.064;2023-01-29T06:04:18;2.23;;;2.03;;
12052;SDS011;6087;48.982;12.064;2023-01-29T06:06:45;2.23;;;2.10;;
12052;SDS011;6087;48.982;12.064;2023-01-29T06:09:14;2.30;;;2.10;;
12052;SDS011;6087;48.982;12.064;2023-01-29T06:11:41;2.60;;;2.40;;
12052;SDS011;6087;48.982;12.064;2023-01-29T06:14:07;2.70;;;2.20;;
12052;SDS011;6087;48.982;12.064;2023-01-29T06:16:34;2.50;;;2.30;;
12052;SDS011;6087;48.982;12.064;2023-01-29T06:19:01;3.53;;;2.03;;
12052;SDS011;6087;48.982;12.064;2023-01-29T06:21:28;3.93;;;2.37;;
12052;SDS011;6087;48.982;12.064;2023-01-29T06:23:55;3.33;;;2.30;;
12052;SDS011;6087;48.982;12.064;2023-01-29T06:26:24;2.53;;;2.33;;
12052;SDS011;6087;48.982;12.064;2023-01-29T06:28:51;2.97;;;2.67;;
12052;SDS011;6087;48.982;12.064;2023-01-29T06:31:18;5.30;;;3.03;;
12052;SDS011;6087;48.982;12.064;2023-01-29T06:33:45;2.40;;;2.20;;
12052;SDS011;6087;48.982;12.064;2023-01-29T06:36:12;2.57;;;2.37;;
12052;SDS011;6087;48.982;12.064;2023-01-29T06:38:38;2.87;;;2.63;;
12052;SDS011;6087;48.982;12.064;2023-01-29T06:41:09;2.90;;;2.60;;
12052;SDS011;6087;48.982;12.064;2023-01-29T06:43:38;2.67;;;2.47;;
12052;SDS011;6087;48.982;12.064;2023-01-29T06:46:06;2.27;;;2.07;;
12052;SDS011;6087;48.982;12.064;2023-01-29T06:48:33;4.80;;;2.83;;
12052;SDS011;6087;48.982;12.064;2023-01-29T06:51:01;2.60;;;2.40;;
12052;SDS011;6087;48.982;12.064;2023-01-29T06:53:29;4.07;;;2.23;;
12052;SDS011;6087;48.982;12.064;2023-01-29T06:55:56;3.10;;;2.80;;
12052;SDS011;6087;48.982;12.064;2023-01-29T06:58:23;2.47;;;2.27;;
12052;SDS011;6087;48.982;12.064;2023-01-29T07:00:52;3.50;;;2.70;;
12052;SDS011;6087;48.982;12.064;2023-01-29T07:03:19;3.13;;;2.80;;
12052;SDS011;6087;48.982;12.064;2023-01-29T07:05:49;2.97;;;2.37;;
12052;SDS011;6087;48.982;12.064;2023-01-29T07:08:17;2.83;;;2.60;;
12052;SDS011;6087;48.982;12.064;2023-01-29T07:10:46;2.87;;;2.40;;
12052;SDS011;6087;48.982;12.064;2023-01-29T07:13:14;3.27;;;2.70;;
12052;SDS011;6087;48.982;12.064;2023-01-29T07:15:41;2.97;;;2.70;;
12052;SDS011;6087;48.982;12.064;2023-01-29T07:18:10;4.17;;;3.00;;
12052;SDS011;6087;48.982;12.064;2023-01-29T07:20:37;3.50;;;3.17;;
12052;SDS011;6087;48.982;12.064;2023-01-29T07:23:05;3.40;;;3.10;;
12052;SDS011;6087;48.982;12.064;2023-01-29T07:25:32;4.63;;;2.93;;
12052;SDS011;6087;48.982;12.064;2023-01-29T07:27:59;4.63;;;3.53;;
12052;SDS011;6087;48.982;12.064;2023-01-29T07:30:26;5.27;;;3.20;;
12052;SDS011;6087;48.982;12.064;2023-01-29T07:32:53;3.40;;;3.10;;
12052;SDS011;6087;48.982;12.064;2023-01-29T07:35:22;4.20;;;3.67;;
12052;SDS011;6087;48.982;12.064;2023-01-29T07:37:49;3.97;;;3.50;;
12052;SDS011;6087;48.982;12.064;2023-01-29T07:40:16;4.17;;;3.57;;
12052;SDS011;6087;48.982;12.064;2023-01-29T07:42:43;4.43;;;4.00;;
12052;SDS011;6087;48.982;12.064;2023-01-29T07:45:10;3.80;;;3.50;;
12052;SDS011;6087;48.982;12.064;2023-01-29T07:47:38;4.03;;;3.43;;
12052;SDS011;6087;48.982;12.064;2023-01-29T07:50:05;3.40;;;3.07;;
12052;SDS011;6087;48.982;12.064;2023-01-29T07:52:33;5.13;;;3.47;;
12052;SDS011;6087;48.982;12.064;2023-01-29T07:55:00;3.50;;;3.17;;
12052;SDS011;6087;48.982;12.064;2023-01-29T07:57:27;4.17;;;3.37;;
12052;SDS011;6087;48.982;12.064;2023-01-29T07:59:55;5.67;;;3.77;;
12052;SDS011;6087;48.982;12.064;2023-01-29T08:02:36;5.73;;;3.87;;
12052;SDS011;6087;48.982;12.064;2023-01-29T08:05:03;5.03;;;4.53;;
12052;SDS011;6087;48.982;12.064;2023-01-29T08:07:30;5.13;;;3.90;;
12052;SDS011;6087;48.982;12.064;2023-01-29T08:09:59;5.97;;;4.23;;
12052;SDS011;6087;48.982;12.064;2023-01-29T08:12:28;5.70;;;4.33;;
12052;SDS011;6087;48.982;12.064;2023-01-29T08:15:05;5.00;;;4.07;;
12052;SDS011;6087;48.982;12.064;2023-01-29T08:17:36;4.67;;;4.27;;
12052;SDS011;6087;48.982;12.064;2023-01-29T08:20:09;6.67;;;4.10;;
12052;SDS011;6087;48.982;12.064;2023-01-29T08:22:41;4.87;;;4.40;;
12052;SDS011;6087;48.982;12.064;2023-01-29T08:25:10;5.00;;;4.03;;
12052;SDS011;6087;48.982;12.064;2023-01-29T08:30:52;8.03;;;4.50;;
12052;SDS011;6087;48.982;12.064;2023-01-29T08:33:28;6.30;;;4.73;;
12052;SDS011;6087;48.982;12.064;2023-01-29T08:35:55;4.87;;;3.80;;
12052;SDS011;6087;48.982;12.064;2023-01-29T08:38:31;5.67;;;4.60;;
12052;SDS011;6087;48.982;12.064;2023-01-29T08:41:15;6.30;;;4.67;;
12052;SDS011;6087;48.982;12.064;2023-01-29T08:43:47;6.70;;;4.60;;
12052;SDS011;6087;48.982;12.064;2023-01-29T08:46:17;5.87;;;5.00;;
12052;SDS011;6087;48.982;12.064;2023-01-29T08:48:44;7.37;;;5.07;;
12052;SDS011;6087;48.982;12.064;2023-01-29T08:51:12;5.63;;;4.13;;
12052;SDS011;6087;48.982;12.064;2023-01-29T08:53:44;5.60;;;4.73;;
12052;SDS011;6087;48.982;12.064;2023-01-29T08:56:11;6.90;;;4.63;;
12052;SDS011;6087;48.982;12.064;2023-01-29T08:58:49;5.70;;;4.47;;
12052;SDS011;6087;48.982;12.064;2023-01-29T09:01:21;6.57;;;4.50;;
12052;SDS011;6087;48.982;12.064;2023-01-29T09:03:50;4.63;;;4.23;;
12052;SDS011;6087;48.982;12.064;2023-01-29T09:06:19;7.80;;;4.70;;
12052;SDS011;6087;48.982;12.064;2023-01-29T09:08:46;5.70;;;4.77;;
12052;SDS011;6087;48.982;12.064;2023-01-29T09:11:23;5.97;;;4.40;;
12052;SDS011;6087;48.982;12.064;2023-01-29T09:13:52;5.90;;;4.60;;
12052;SDS011;6087;48.982;12.064;2023-01-29T09:16:21;4.03;;;3.67;;
12052;SDS011;6087;48.982;12.064;2023-01-29T09:19:02;4.43;;;4.00;;
12052;SDS011;6087;48.982;12.064;2023-01-29T09:21:40;5.20;;;4.47;;
12052;SDS011;6087;48.982;12.064;2023-01-29T09:24:19;5.17;;;4.27;;
12052;SDS011;6087;48.982;12.064;2023-01-29T09:27:03;4.50;;;4.10;;
12052;SDS011;6087;48.982;12.064;2023-01-29T09:29:35;5.40;;;4.90;;
12052;SDS011;6087;48.982;12.064;2023-01-29T09:32:09;4.90;;;4.43;;
12052;SDS011;6087;48.982;12.064;2023-01-29T09:34:48;5.27;;;4.63;;
12052;SDS011;6087;48.982;12.064;2023-01-29T09:37:18;6.30;;;4.63;;
12052;SDS011;6087;48.982;12.064;2023-01-29T09:39:48;5.10;;;4.60;;
12052;SDS011;6087;48.982;12.064;2023-01-29T09:42:22;5.97;;;5.00;;
12052;SDS011;6087;48.982;12.064;2023-01-29T09:45:00;5.80;;;4.60;;
12052;SDS011;6087;48.982;12.064;2023-01-29T09:47:32;5.67;;;4.83;;
12052;SDS011;6087;48.982;12.064;2023-01-29T09:50:04;6.53;;;5.80;;
12052;SDS011;6087;48.982;12.064;2023-01-29T09:52:36;6.47;;;5.10;;
12052;SDS011;6087;48.982;12.064;2023-01-29T09:55:11;8.07;;;4.87;;
12052;SDS011;6087;48.982;12.064;2023-01-29T09:57:51;9.13;;;5.90;;
12052;SDS011;6087;48.982;12.064;2023-01-29T10:00:30;6.10;;;5.10;;
12052;SDS011;6087;48.982;12.064;2023-01-29T10:03:20;6.13;;;4.50;;
12052;SDS011;6087;48.982;12.064;2023-01-29T10:06:02;6.03;;;5.43;;
12052;SDS011;6087;48.982;12.064;2023-01-29T10:08:47;6.93;;;5.70;;
12052;SDS011;6087;48.982;12.064;2023-01-29T10:11:45;6.30;;;5.17;;
12052;SDS011;6087;48.982;12.064;2023-01-29T10:14:22;5.30;;;4.80;;
12052;SDS011;6087;48.982;12.064;2023-01-29T10:17:10;7.13;;;5.60;;
12052;SDS011;6087;48.982;12.064;2023-01-29T10:20:00;5.83;;;4.83;;
12052;SDS011;6087;48.982;12.064;2023-01-29T10:22:45;7.17;;;4.93;;
12052;SDS011;6087;48.982;12.064;2023-01-29T10:25:28;5.67;;;5.07;;
12052;SDS011;6087;48.982;12.064;2023-01-29T10:28:13;5.30;;;4.80;;
12052;SDS011;6087;48.982;12.064;2023-01-29T10:30:49;7.30;;;4.73;;
12052;SDS011;6087;48.982;12.064;2023-01-29T10:33:25;4.90;;;4.17;;
12052;SDS011;6087;48.982;12.064;2023-01-29T10:36:16;5.10;;;4.40;;
12052;SDS011;6087;48.982;12.064;2023-01-29T10:39:08;4.80;;;4.30;;
12052;SDS011;6087;48.982;12.064;2023-01-29T10:42:05;5.30;;;4.80;;
12052;SDS011;6087;48.982;12.064;2023-01-29T10:44:59;8.23;;;5.07;;
12052;SDS011;6087;48.982;12.064;2023-01-29T10:47:57;5.03;;;4.53;;
12052;SDS011;6087;48.982;12.064;2023-01-29T10:51:04;5.47;;;4.40;;
12052;SDS011;6087;48.982;12.064;2023-01-29T10:53:58;6.00;;;4.77;;
12052;SDS011;6087;48.982;12.064;2023-01-29T10:56:50;4.83;;;4.33;;
12052;SDS011;6087;48.982;12.064;2023-01-29T10:59:34;5.93;;;4.90;;
12052;SDS011;6087;48.982;12.064;2023-01-29T11:02:15;5.20;;;4.70;;
12052;SDS011;6087;48.982;12.064;2023-01-29T11:04:54;6.27;;;4.87;;
12052;SDS011;6087;48.982;12.064;2023-01-29T11:07:26;4.83;;;4.27;;
12052;SDS011;6087;48.982;12.064;2023-01-29T11:09:56;6.60;;;5.07;;
12052;SDS011;6087;48.982;12.064;2023-01-29T11:12:33;7.00;;;5.07;;
12052;SDS011;6087;48.982;12.064;2023-01-29T11:15:04;6.13;;;5.07;;
12052;SDS011;6087;48.982;12.064;2023-01-29T11:20:33;6.33;;;4.97;;
12052;SDS011;6087;48.982;12.064;2023-01-29T11:23:17;5.37;;;4.73;;
12052;SDS011;6087;48.982;12.064;2023-01-29T11:26:04;6.20;;;5.00;;
12052;SDS011;6087;48.982;12.064;2023-01-29T11:28:47;7.23;;;4.93;;
12052;SDS011;6087;48.982;12.064;2023-01-29T11:31:28;5.13;;;4.40;;
12052;SDS011;6087;48.982;12.064;2023-01-29T11:34:20;6.77;;;5.37;;
12052;SDS011;6087;48.982;12.064;2023-01-29T11:36:57;6.03;;;4.50;;
12052;SDS011;6087;48.982;12.064;2023-01-29T11:39:47;5.93;;;5.13;;
12052;SDS011;6087;48.982;12.064;2023-01-29T11:42:39;5.70;;;5.10;;
12052;SDS011;6087;48.982;12.064;2023-01-29T11:45:26;6.03;;;4.70;;
12052;SDS011;6087;48.982;12.064;2023-01-29T11:48:05;6.90;;;5.17;;
12052;SDS011;6087;48.982;12.064;2023-01-29T11:50:54;5.97;;;5.23;;
12052;SDS011;6087;48.982;12.064;2023-01-29T11:56:25;12.53;;;8.30;;
12052;SDS011;6087;48.982;12.064;2023-01-29T11:59:21;36.10;;;21.93;;
12052;SDS011;6087;48.982;12.064;2023-01-29T12:02:23;8.93;;;6.63;;
12052;SDS011;6087;48.982;12.064;2023-01-29T12:05:23;6.57;;;5.20;;
12052;SDS011;6087;48.982;12.064;2023-01-29T12:08:09;7.20;;;5.63;;
12052;SDS011;6087;48.982;12.064;2023-01-29T12:10:47;7.83;;;6.37;;
12052;SDS011;6087;48.982;12.064;2023-01-29T12:13:24;8.60;;;4.87;;
12052;SDS011;6087;48.982;12.064;2023-01-29T12:16:09;5.77;;;5.17;;
12052;SDS011;6087;48.982;12.064;2023-01-29T12:18:53;6.47;;;4.80;;
12052;SDS011;6087;48.982;12.064;2023-01-29T12:21:43;8.07;;;6.27;;
12052;SDS011;6087;48.982;12.064;2023-01-29T12:24:32;12.47;;;9.47;;
12052;SDS011;6087;48.982;12.064;2023-01-29T12:27:23;6.47;;;5.87;;
12052;SDS011;6087;48.982;12.064;2023-01-29T12:30:21;6.63;;;5.17;;
12052;SDS011;6087;48.982;12.064;2023-01-29T12:33:02;6.83;;;5.37;;
12052;SDS011;6087;48.982;12.064;2023-01-29T12:35:40;4.93;;;4.27;;
12052;SDS011;6087;48.982;12.064;2023-01-29T12:38:19;5.83;;;5.03;;
12052;SDS011;6087;48.982;12.064;2023-01-29T12:41:03;5.77;;;4.80;;
12052;SDS011;6087;48.982;12.064;2023-01-29T12:43:44;6.17;;;5.20;;
12052;SDS011;6087;48.982;12.064;2023-01-29T12:46:42;6.37;;;5.47;;
12052;SDS011;6087;48.982;12.064;2023-01-29T12:49:32;5.43;;;4.57;;
12052;SDS011;6087;48.982;12.064;2023-01-29T12:52:21;6.13;;;4.73;;
12052;SDS011;6087;48.982;12.064;2023-01-29T12:55:10;6.33;;;5.30;;
12052;SDS011;6087;48.982;12.064;2023-01-29T12:58:08;6.13;;;;;
12052;SDS011;6087;48.982;12.064;2023-01-29T13:00:56;6.20;;;4.67;;
12052;SDS011;6087;48.982;12.064;2023-01-29T13:03:38;8.37;;;5.13;;
12052;SDS011;6087;48.982;12.064;2023-01-29T13:06:30;4.60;;;4.10;;
12052;SDS011;6087;48.982;12.064;2023-01-29T13:09:08;5.63;;;4.57;;
12052;SDS011;6087;48.982;12.064;2023-01-29T13:12:10;6.80;;;4.80;;
12052;SDS011;6087;48.982;12.064;2023-01-29T13:14:56;5.47;;;4.20;;
12052;SDS011;6087;48.982;12.064;2023-01-29T13:17:49;5.30;;;4.80;;
12052;SDS011;6087;48.982;12.064;2023-01-29T13:20:55;4.93;;;4.33;;
12052;SDS011;6087;48.982;12.064;2023-01-29T13:23:38;5.40;;;4.63;;
12052;SDS011;6087;48.982;12.064;2023-01-29T13:26:23;7.57;;;5.20;;
12052;SDS011;6087;48.982;12.064;2023-01-29T13:28:57;5.03;;;4.40;;
12052;SDS011;6087;48.982;12.064;2023-01-29T13:31:57;6.30;;;4.03;;
12052;SDS011;6087;48.982;12.064;2023-01-29T13:34:42;5.70;;;4.43;;
12052;SDS011;6087;48.982;12.064;2023-01-29T13:37:17;5.70;;;4.57;;
12052;SDS011;6087;48.982;12.064;2023-01-29T13:40:02;7.57;;;5.30;;
12052;SDS011;6087;48.982;12.064;2023-01-29T13:42:44;6.23;;;5.00;;
12052;SDS011;6087;48.982;12.064;2023-01-29T13:45:31;6.17;;;5.40;;
12052;SDS011;6087;48.982;12.064;2023-01-29T13:48:18;5.30;;;4.80;;
12052;SDS011;6087;48.982;12.064;2023-01-29T13:50:59;6.07;;;4.50;;
12052;SDS011;6087;48.982;12.064;2023-01-29T13:53:43;8.80;;;4.17;;
12052;SDS011;6087;48.982;12.064;2023-01-29T13:59:49;6.53;;;4.83;;
12052;SDS011;6087;48.982;12.064;2023-01-29T14:02:26;8.50;;;4.60;;
12052;SDS011;6087;48.982;12.064;2023-01-29T14:05:35;5.53;;;4.27;;
12052;SDS011;6087;48.982;12.064;2023-01-29T14:08:35;5.40;;;4.40;;
12052;SDS011;6087;48.982;12.064;2023-01-29T14:17:14;6.87;;;4.73;;
12052;SDS011;6087;48.982;12.064;2023-01-29T14:19:49;4.70;;;4.23;;
12052;SDS011;6087;48.982;12.064;2023-01-29T14:22:20;5.73;;;4.57;;
12052;SDS011;6087;48.982;12.064;2023-01-29T14:25:03;5.03;;;4.53;;
12052;SDS011;6087;48.982;12.064;2023-01-29T14:27:48;6.27;;;4.47;;
12052;SDS011;6087;48.982;12.064;2023-01-29T14:30:27;5.50;;;4.67;;
12052;SDS011;6087;48.982;12.064;2023-01-29T14:36:06;6.30;;;4.40;;
12052;SDS011;6087;48.982;12.064;2023-01-29T14:38:53;5.17;;;4.30;;
12052;SDS011;6087;48.982;12.064;2023-01-29T14:41:32;21.57;;;10.33;;
12052;SDS011;6087;48.982;12.064;2023-01-29T14:47:51;8.67;;;5.57;;
12052;SDS011;6087;48.982;12.064;2023-01-29T14:50:45;8.17;;;5.50;;
12052;SDS011;6087;48.982;12.064;2023-01-29T14:56:27;6.63;;;4.80;;
12052;SDS011;6087;48.982;12.064;2023-01-29T14:59:10;5.63;;;4.63;;
12052;SDS011;6087;48.982;12.064;2023-01-29T15:01:49;7.50;;;5.10;;
12052;SDS011;6087;48.982;12.064;2023-01-29T15:04:37;5.87;;;5.30;;
12052;SDS011;6087;48.982;12.064;2023-01-29T15:07:20;6.77;;;4.90;;
12052;SDS011;6087;48.982;12.064;2023-01-29T15:10:10;7.33;;;5.17;;
12052;SDS011;6087;48.982;12.064;2023-01-29T15:12:44;6.53;;;5.07;;
12052;SDS011;6087;48.982;12.064;2023-01-29T15:15:34;6.33;;;5.10;;
12052;SDS011;6087;48.982;12.064;2023-01-29T15:18:07;5.77;;;5.03;;
12052;SDS011;6087;48.982;12.064;2023-01-29T15:20:50;6.80;;;4.97;;
12052;SDS011;6087;48.982;12.064;2023-01-29T15:23:35;8.27;;;5.90;;
12052;SDS011;6087;48.982;12.064;2023-01-29T15:26:11;7.97;;;5.80;;
12052;SDS011;6087;48.982;12.064;2023-01-29T15:28:52;6.23;;;5.10;;
12052;SDS011;6087;48.982;12.064;2023-01-29T15:31:41;8.63;;;6.00;;
12052;SDS011;6087;48.982;12.064;2023-01-29T15:34:16;7.17;;;5.37;;
12052;SDS011;6087;48.982;12.064;2023-01-29T15:36:45;6.53;;;5.47;;
12052;SDS011;6087;48.982;12.064;2023-01-29T15:39:17;7.20;;;5.87;;
12052;SDS011;6087;48.982;12.064;2023-01-29T15:42:19;8.13;;;5.80;;
12052;SDS011;6087;48.982;12.064;2023-01-29T15:44:56;6.90;;;5.30;;
12052;SDS011;6087;48.982;12.064;2023-01-29T15:47:33;8.07;;;6.47;;
12052;SDS011;6087;48.982;12.064;2023-01-29T15:50:10;8.50;;;6.23;;
12052;SDS011;6087;48.982;12.064;2023-01-29T15:52:43;8.10;;;6.23;;
12052;SDS011;6087;48.982;12.064;2023-01-29T15:55:20;7.13;;;5.93;;
12052;SDS011;6087;48.982;12.064;2023-01-29T15:57:55;6.73;;;5.43;;
12052;SDS011;6087;48.982;12.064;2023-01-29T16:00:24;7.37;;;5.70;;
12052;SDS011;6087;48.982;12.064;2023-01-29T16:02:52;7.70;;;6.40;;
12052;SDS011;6087;48.982;12.064;2023-01-29T16:05:34;7.63;;;6.03;;
12052;SDS011;6087;48.982;12.064;2023-01-29T16:08:03;7.83;;;6.33;;
12052;SDS011;6087;48.982;12.064;2023-01-29T16:10:40;10.23;;;6.83;;
12052;SDS011;6087;48.982;12.064;2023-01-29T16:13:15;6.73;;;5.67;;